Rainbow, Texas
Current Conditions -  °F | °C
As of 6:15 PM on Sunday 25 Jan 2015 (Local Time) from KGDJ Reporting Station
Clear Clear  
Wind Chill: 15°   Ceiling: Unl
Heat Index: 15°   Visibility: 10mi
Dew Point: -4°   Wind: 9mph
Humidity: 28%   Direction: 300°WNW
Pressure: 30.12"   Gusts: NA
Location:  32.27°N, 97.7°W
Report Text: KGDJ 260015Z AUTO 30008KT 10SM CLR 15/M03 A3012 RMK AO2 T01491035
Loading
Personal Weather Stations






























Interactive Weather Map New forecast layout! Learn more

10-Day Weather Forecast

Advertisements
Track Severe Weather on mobile